sensor_id;sensor_type;location;lat;lon;timestamp;P1;durP1;ratioP1;P2;durP2;ratioP2
14874;SDS011;7529;48.170;17.138;2022-11-20T00:01:14;46.45;;;42.38;;
14874;SDS011;7529;48.170;17.138;2022-11-20T00:05:31;40.58;;;37.10;;
14874;SDS011;7529;48.170;17.138;2022-11-20T00:09:43;42.65;;;38.90;;
14874;SDS011;7529;48.170;17.138;2022-11-20T00:13:56;46.22;;;42.38;;
14874;SDS011;7529;48.170;17.138;2022-11-20T00:18:09;47.25;;;43.20;;
14874;SDS011;7529;48.170;17.138;2022-11-20T00:22:21;44.90;;;41.30;;
14874;SDS011;7529;48.170;17.138;2022-11-20T00:26:34;41.30;;;37.88;;
14874;SDS011;7529;48.170;17.138;2022-11-20T00:30:46;35.10;;;31.92;;
14874;SDS011;7529;48.170;17.138;2022-11-20T00:34:57;35.78;;;33.05;;
14874;SDS011;7529;48.170;17.138;2022-11-20T00:39:09;38.15;;;35.25;;
14874;SDS011;7529;48.170;17.138;2022-11-20T00:43:20;39.80;;;36.60;;
14874;SDS011;7529;48.170;17.138;2022-11-20T00:47:33;38.35;;;34.95;;
14874;SDS011;7529;48.170;17.138;2022-11-20T00:51:44;38.90;;;35.53;;
14874;SDS011;7529;48.170;17.138;2022-11-20T00:55:56;39.97;;;36.35;;
14874;SDS011;7529;48.170;17.138;2022-11-20T01:00:12;40.95;;;37.53;;
14874;SDS011;7529;48.170;17.138;2022-11-20T01:04:24;43.63;;;39.72;;
14874;SDS011;7529;48.170;17.138;2022-11-20T01:08:36;41.50;;;37.80;;
14874;SDS011;7529;48.170;17.138;2022-11-20T01:12:48;39.83;;;35.95;;
14874;SDS011;7529;48.170;17.138;2022-11-20T01:17:21;40.33;;;37.03;;
14874;SDS011;7529;48.170;17.138;2022-11-20T01:21:33;46.15;;;41.50;;
14874;SDS011;7529;48.170;17.138;2022-11-20T01:25:46;45.05;;;41.05;;
14874;SDS011;7529;48.170;17.138;2022-11-20T01:29:58;42.60;;;38.58;;
14874;SDS011;7529;48.170;17.138;2022-11-20T01:34:14;47.25;;;42.22;;
14874;SDS011;7529;48.170;17.138;2022-11-20T01:38:27;50.15;;;44.92;;
14874;SDS011;7529;48.170;17.138;2022-11-20T01:42:47;56.17;;;50.13;;
14874;SDS011;7529;48.170;17.138;2022-11-20T01:47:46;51.35;;;46.15;;
14874;SDS011;7529;48.170;17.138;2022-11-20T01:52:02;41.40;;;37.38;;
14874;SDS011;7529;48.170;17.138;2022-11-20T01:56:25;39.28;;;35.67;;
14874;SDS011;7529;48.170;17.138;2022-11-20T02:00:39;38.40;;;35.08;;
14874;SDS011;7529;48.170;17.138;2022-11-20T02:04:52;36.08;;;32.78;;
14874;SDS011;7529;48.170;17.138;2022-11-20T02:09:07;38.58;;;35.47;;
14874;SDS011;7529;48.170;17.138;2022-11-20T02:13:21;38.72;;;35.22;;
14874;SDS011;7529;48.170;17.138;2022-11-20T02:17:53;37.55;;;34.25;;
14874;SDS011;7529;48.170;17.138;2022-11-20T02:22:10;35.53;;;32.42;;
14874;SDS011;7529;48.170;17.138;2022-11-20T02:26:33;37.03;;;33.92;;
14874;SDS011;7529;48.170;17.138;2022-11-20T02:30:50;36.95;;;33.72;;
14874;SDS011;7529;48.170;17.138;2022-11-20T02:39:29;38.60;;;35.00;;
14874;SDS011;7529;48.170;17.138;2022-11-20T02:43:41;37.70;;;34.08;;
14874;SDS011;7529;48.170;17.138;2022-11-20T02:47:55;38.10;;;34.20;;
14874;SDS011;7529;48.170;17.138;2022-11-20T02:52:07;36.30;;;32.67;;
14874;SDS011;7529;48.170;17.138;2022-11-20T02:56:20;48.45;;;44.25;;
14874;SDS011;7529;48.170;17.138;2022-11-20T03:00:32;64.05;;;59.13;;
14874;SDS011;7529;48.170;17.138;2022-11-20T03:04:45;100.90;;;93.90;;
14874;SDS011;7529;48.170;17.138;2022-11-20T03:08:57;114.63;;;106.97;;
14874;SDS011;7529;48.170;17.138;2022-11-20T03:13:08;119.85;;;111.43;;
14874;SDS011;7529;48.170;17.138;2022-11-20T03:17:21;113.07;;;106.10;;
14874;SDS011;7529;48.170;17.138;2022-11-20T03:21:33;113.82;;;106.57;;
14874;SDS011;7529;48.170;17.138;2022-11-20T03:25:46;131.15;;;123.47;;
14874;SDS011;7529;48.170;17.138;2022-11-20T03:29:58;129.20;;;121.95;;
14874;SDS011;7529;48.170;17.138;2022-11-20T03:34:11;112.43;;;105.80;;
14874;SDS011;7529;48.170;17.138;2022-11-20T03:38:24;115.70;;;108.55;;
14874;SDS011;7529;48.170;17.138;2022-11-20T03:42:36;100.88;;;94.57;;
14874;SDS011;7529;48.170;17.138;2022-11-20T03:46:56;76.57;;;71.32;;
14874;SDS011;7529;48.170;17.138;2022-11-20T03:51:12;79.60;;;74.22;;
14874;SDS011;7529;48.170;17.138;2022-11-20T03:55:28;102.03;;;95.88;;
14874;SDS011;7529;48.170;17.138;2022-11-20T03:59:40;92.43;;;86.20;;
14874;SDS011;7529;48.170;17.138;2022-11-20T04:03:52;87.10;;;81.53;;
14874;SDS011;7529;48.170;17.138;2022-11-20T04:08:07;91.78;;;85.55;;
14874;SDS011;7529;48.170;17.138;2022-11-20T04:12:18;127.82;;;120.25;;
14874;SDS011;7529;48.170;17.138;2022-11-20T04:16:31;114.88;;;107.25;;
14874;SDS011;7529;48.170;17.138;2022-11-20T04:20:43;129.13;;;119.10;;
14874;SDS011;7529;48.170;17.138;2022-11-20T04:24:55;145.80;;;133.88;;
14874;SDS011;7529;48.170;17.138;2022-11-20T04:29:09;167.50;;;150.95;;
14874;SDS011;7529;48.170;17.138;2022-11-20T04:33:21;147.93;;;135.75;;
14874;SDS011;7529;48.170;17.138;2022-11-20T04:37:33;136.65;;;125.20;;
14874;SDS011;7529;48.170;17.138;2022-11-20T04:41:45;163.63;;;151.95;;
14874;SDS011;7529;48.170;17.138;2022-11-20T04:45:58;143.55;;;130.80;;
14874;SDS011;7529;48.170;17.138;2022-11-20T04:50:53;128.57;;;118.43;;
14874;SDS011;7529;48.170;17.138;2022-11-20T04:55:06;90.63;;;82.60;;
14874;SDS011;7529;48.170;17.138;2022-11-20T04:59:24;111.70;;;102.15;;
14874;SDS011;7529;48.170;17.138;2022-11-20T05:03:36;117.60;;;107.72;;
14874;SDS011;7529;48.170;17.138;2022-11-20T05:07:49;129.57;;;118.82;;
14874;SDS011;7529;48.170;17.138;2022-11-20T05:12:01;134.93;;;125.85;;
14874;SDS011;7529;48.170;17.138;2022-11-20T05:16:13;128.23;;;120.40;;
14874;SDS011;7529;48.170;17.138;2022-11-20T05:20:29;138.98;;;130.43;;
14874;SDS011;7529;48.170;17.138;2022-11-20T05:24:43;129.70;;;121.80;;
14874;SDS011;7529;48.170;17.138;2022-11-20T05:28:54;141.55;;;132.85;;
14874;SDS011;7529;48.170;17.138;2022-11-20T05:33:07;119.47;;;111.63;;
14874;SDS011;7529;48.170;17.138;2022-11-20T05:37:20;133.18;;;124.53;;
14874;SDS011;7529;48.170;17.138;2022-11-20T05:41:33;138.65;;;130.57;;
14874;SDS011;7529;48.170;17.138;2022-11-20T05:45:54;118.32;;;111.35;;
14874;SDS011;7529;48.170;17.138;2022-11-20T05:50:06;175.13;;;164.85;;
14874;SDS011;7529;48.170;17.138;2022-11-20T05:54:18;179.88;;;169.90;;
14874;SDS011;7529;48.170;17.138;2022-11-20T05:58:30;210.30;;;198.80;;
14874;SDS011;7529;48.170;17.138;2022-11-20T06:02:42;166.80;;;157.00;;
14874;SDS011;7529;48.170;17.138;2022-11-20T06:06:55;153.55;;;144.55;;
14874;SDS011;7529;48.170;17.138;2022-11-20T06:11:08;169.60;;;159.35;;
14874;SDS011;7529;48.170;17.138;2022-11-20T06:15:20;150.45;;;141.63;;
14874;SDS011;7529;48.170;17.138;2022-11-20T06:19:32;163.00;;;153.55;;
14874;SDS011;7529;48.170;17.138;2022-11-20T06:23:45;142.15;;;133.68;;
14874;SDS011;7529;48.170;17.138;2022-11-20T06:27:59;154.50;;;144.77;;
14874;SDS011;7529;48.170;17.138;2022-11-20T06:32:12;136.55;;;128.35;;
14874;SDS011;7529;48.170;17.138;2022-11-20T06:36:23;164.40;;;154.48;;
14874;SDS011;7529;48.170;17.138;2022-11-20T06:40:39;159.73;;;149.82;;
14874;SDS011;7529;48.170;17.138;2022-11-20T06:44:51;159.38;;;150.38;;
14874;SDS011;7529;48.170;17.138;2022-11-20T06:49:04;139.85;;;130.75;;
14874;SDS011;7529;48.170;17.138;2022-11-20T06:53:18;142.93;;;133.80;;
14874;SDS011;7529;48.170;17.138;2022-11-20T06:57:30;158.82;;;148.15;;
14874;SDS011;7529;48.170;17.138;2022-11-20T07:01:41;137.75;;;129.23;;
14874;SDS011;7529;48.170;17.138;2022-11-20T07:05:57;106.15;;;99.43;;
14874;SDS011;7529;48.170;17.138;2022-11-20T07:10:09;115.45;;;107.60;;
14874;SDS011;7529;48.170;17.138;2022-11-20T07:14:20;118.93;;;111.55;;
14874;SDS011;7529;48.170;17.138;2022-11-20T07:18:32;107.25;;;100.25;;
14874;SDS011;7529;48.170;17.138;2022-11-20T07:22:43;89.45;;;83.25;;
14874;SDS011;7529;48.170;17.138;2022-11-20T07:26:55;79.30;;;73.30;;
14874;SDS011;7529;48.170;17.138;2022-11-20T07:31:07;84.13;;;77.88;;
14874;SDS011;7529;48.170;17.138;2022-11-20T07:35:19;105.72;;;98.50;;
14874;SDS011;7529;48.170;17.138;2022-11-20T07:39:32;115.75;;;107.95;;
14874;SDS011;7529;48.170;17.138;2022-11-20T07:43:43;135.93;;;127.72;;
14874;SDS011;7529;48.170;17.138;2022-11-20T07:47:56;126.63;;;118.22;;
14874;SDS011;7529;48.170;17.138;2022-11-20T07:52:09;133.88;;;125.28;;
14874;SDS011;7529;48.170;17.138;2022-11-20T07:56:20;64.95;;;58.83;;
14874;SDS011;7529;48.170;17.138;2022-11-20T08:00:32;79.88;;;73.55;;
14874;SDS011;7529;48.170;17.138;2022-11-20T08:04:45;70.93;;;65.13;;
14874;SDS011;7529;48.170;17.138;2022-11-20T08:08:56;62.55;;;57.08;;
14874;SDS011;7529;48.170;17.138;2022-11-20T08:13:08;118.03;;;110.18;;
14874;SDS011;7529;48.170;17.138;2022-11-20T08:17:38;72.18;;;65.63;;
14874;SDS011;7529;48.170;17.138;2022-11-20T08:21:49;80.15;;;73.63;;
14874;SDS011;7529;48.170;17.138;2022-11-20T08:26:01;117.05;;;109.40;;
14874;SDS011;7529;48.170;17.138;2022-11-20T08:30:13;102.35;;;94.97;;
14874;SDS011;7529;48.170;17.138;2022-11-20T08:34:24;88.03;;;81.85;;
14874;SDS011;7529;48.170;17.138;2022-11-20T08:38:36;109.95;;;102.30;;
14874;SDS011;7529;48.170;17.138;2022-11-20T08:42:48;75.55;;;69.65;;
14874;SDS011;7529;48.170;17.138;2022-11-20T08:47:01;44.22;;;40.00;;
14874;SDS011;7529;48.170;17.138;2022-11-20T08:51:13;41.83;;;37.55;;
14874;SDS011;7529;48.170;17.138;2022-11-20T08:55:25;40.67;;;36.75;;
14874;SDS011;7529;48.170;17.138;2022-11-20T08:59:36;42.22;;;38.25;;
14874;SDS011;7529;48.170;17.138;2022-11-20T09:03:49;39.25;;;35.58;;
14874;SDS011;7529;48.170;17.138;2022-11-20T09:08:01;38.80;;;34.90;;
14874;SDS011;7529;48.170;17.138;2022-11-20T09:12:14;40.45;;;36.25;;
14874;SDS011;7529;48.170;17.138;2022-11-20T09:16:25;38.75;;;34.67;;
14874;SDS011;7529;48.170;17.138;2022-11-20T09:20:39;39.17;;;35.28;;
14874;SDS011;7529;48.170;17.138;2022-11-20T09:24:52;37.45;;;33.83;;
14874;SDS011;7529;48.170;17.138;2022-11-20T09:29:03;37.85;;;34.00;;
14874;SDS011;7529;48.170;17.138;2022-11-20T09:33:17;36.60;;;32.90;;
14874;SDS011;7529;48.170;17.138;2022-11-20T09:37:29;24.90;;;22.85;;
14874;SDS011;7529;48.170;17.138;2022-11-20T09:41:51;22.95;;;20.73;;
14874;SDS011;7529;48.170;17.138;2022-11-20T09:55:31;22.08;;;18.85;;
14874;SDS011;7529;48.170;17.138;2022-11-20T09:59:50;21.15;;;19.58;;
14874;SDS011;7529;48.170;17.138;2022-11-20T10:04:15;21.58;;;19.70;;
14874;SDS011;7529;48.170;17.138;2022-11-20T10:08:28;21.02;;;19.35;;
14874;SDS011;7529;48.170;17.138;2022-11-20T10:31:27;25.85;;;23.75;;
14874;SDS011;7529;48.170;17.138;2022-11-20T10:36:27;35.38;;;31.98;;
14874;SDS011;7529;48.170;17.138;2022-11-20T10:40:37;36.17;;;32.30;;
14874;SDS011;7529;48.170;17.138;2022-11-20T10:45:02;35.60;;;32.00;;
14874;SDS011;7529;48.170;17.138;2022-11-20T10:49:30;33.90;;;30.63;;
14874;SDS011;7529;48.170;17.138;2022-11-20T10:53:50;38.88;;;31.45;;
14874;SDS011;7529;48.170;17.138;2022-11-20T10:58:54;36.50;;;32.95;;
14874;SDS011;7529;48.170;17.138;2022-11-20T11:03:30;35.20;;;31.70;;
14874;SDS011;7529;48.170;17.138;2022-11-20T11:07:42;35.97;;;31.98;;
14874;SDS011;7529;48.170;17.138;2022-11-20T11:11:55;26.27;;;24.15;;
14874;SDS011;7529;48.170;17.138;2022-11-20T11:16:26;25.15;;;22.75;;
14874;SDS011;7529;48.170;17.138;2022-11-20T11:20:39;25.48;;;23.27;;
14874;SDS011;7529;48.170;17.138;2022-11-20T11:25:01;24.92;;;22.85;;
14874;SDS011;7529;48.170;17.138;2022-11-20T11:29:15;22.92;;;20.65;;
14874;SDS011;7529;48.170;17.138;2022-11-20T11:33:31;27.98;;;25.58;;
14874;SDS011;7529;48.170;17.138;2022-11-20T11:37:46;24.95;;;22.75;;
14874;SDS011;7529;48.170;17.138;2022-11-20T11:41:59;24.38;;;22.40;;
14874;SDS011;7529;48.170;17.138;2022-11-20T11:51:01;28.05;;;24.98;;
14874;SDS011;7529;48.170;17.138;2022-11-20T11:55:29;24.27;;;22.05;;
14874;SDS011;7529;48.170;17.138;2022-11-20T12:00:10;25.27;;;23.02;;
14874;SDS011;7529;48.170;17.138;2022-11-20T12:09:10;27.08;;;24.35;;
14874;SDS011;7529;48.170;17.138;2022-11-20T12:17:58;23.65;;;21.52;;
14874;SDS011;7529;48.170;17.138;2022-11-20T12:27:03;23.48;;;21.35;;
14874;SDS011;7529;48.170;17.138;2022-11-20T12:31:42;22.15;;;20.08;;
14874;SDS011;7529;48.170;17.138;2022-11-20T12:36:01;22.10;;;20.40;;
14874;SDS011;7529;48.170;17.138;2022-11-20T12:45:20;21.40;;;19.70;;
14874;SDS011;7529;48.170;17.138;2022-11-20T12:49:40;22.00;;;20.05;;
14874;SDS011;7529;48.170;17.138;2022-11-20T12:58:20;21.65;;;19.83;;
14874;SDS011;7529;48.170;17.138;2022-11-20T13:07:10;23.60;;;21.40;;
14874;SDS011;7529;48.170;17.138;2022-11-20T13:11:37;22.83;;;20.83;;
14874;SDS011;7529;48.170;17.138;2022-11-20T13:20:27;24.58;;;21.85;;
14874;SDS011;7529;48.170;17.138;2022-11-20T13:24:50;22.08;;;20.33;;
14874;SDS011;7529;48.170;17.138;2022-11-20T13:33:37;20.77;;;19.17;;
14874;SDS011;7529;48.170;17.138;2022-11-20T13:37:58;23.42;;;21.65;;
14874;SDS011;7529;48.170;17.138;2022-11-20T13:46:43;21.85;;;20.30;;
14874;SDS011;7529;48.170;17.138;2022-11-20T13:50:59;22.95;;;20.75;;
14874;SDS011;7529;48.170;17.138;2022-11-20T13:55:35;21.05;;;19.45;;
14874;SDS011;7529;48.170;17.138;2022-11-20T14:00:14;21.23;;;19.42;;
14874;SDS011;7529;48.170;17.138;2022-11-20T14:04:35;21.77;;;20.15;;
14874;SDS011;7529;48.170;17.138;2022-11-20T14:08:48;21.83;;;19.95;;
14874;SDS011;7529;48.170;17.138;2022-11-20T14:17:43;22.65;;;20.63;;
14874;SDS011;7529;48.170;17.138;2022-11-20T14:22:47;22.92;;;21.17;;
14874;SDS011;7529;48.170;17.138;2022-11-20T14:26:31;21.50;;;19.88;;
14874;SDS011;7529;48.170;17.138;2022-11-20T14:30:44;20.70;;;19.20;;
14874;SDS011;7529;48.170;17.138;2022-11-20T14:35:01;26.67;;;24.35;;
14874;SDS011;7529;48.170;17.138;2022-11-20T14:39:21;21.45;;;19.65;;
14874;SDS011;7529;48.170;17.138;2022-11-20T14:43:36;26.17;;;23.88;;
14874;SDS011;7529;48.170;17.138;2022-11-20T14:47:48;30.63;;;27.73;;
14874;SDS011;7529;48.170;17.138;2022-11-20T14:52:10;33.33;;;30.15;;
14874;SDS011;7529;48.170;17.138;2022-11-20T14:56:29;39.25;;;33.35;;
14874;SDS011;7529;48.170;17.138;2022-11-20T15:00:41;38.42;;;34.95;;
14874;SDS011;7529;48.170;17.138;2022-11-20T15:04:57;43.92;;;40.13;;
14874;SDS011;7529;48.170;17.138;2022-11-20T15:09:14;43.40;;;39.97;;
14874;SDS011;7529;48.170;17.138;2022-11-20T15:13:37;47.67;;;43.58;;
14874;SDS011;7529;48.170;17.138;2022-11-20T15:17:49;51.67;;;47.40;;
14874;SDS011;7529;48.170;17.138;2022-11-20T15:22:02;52.15;;;47.65;;
14874;SDS011;7529;48.170;17.138;2022-11-20T15:26:17;49.35;;;45.28;;
14874;SDS011;7529;48.170;17.138;2022-11-20T15:30:36;69.35;;;64.70;;
14874;SDS011;7529;48.170;17.138;2022-11-20T15:34:49;79.65;;;74.03;;
14874;SDS011;7529;48.170;17.138;2022-11-20T15:39:01;84.13;;;78.18;;
14874;SDS011;7529;48.170;17.138;2022-11-20T15:43:15;115.55;;;108.40;;
14874;SDS011;7529;48.170;17.138;2022-11-20T15:47:27;149.52;;;140.90;;
14874;SDS011;7529;48.170;17.138;2022-11-20T15:51:43;120.28;;;113.15;;
14874;SDS011;7529;48.170;17.138;2022-11-20T15:55:58;153.80;;;144.57;;
14874;SDS011;7529;48.170;17.138;2022-11-20T16:00:10;197.70;;;186.90;;
14874;SDS011;7529;48.170;17.138;2022-11-20T16:04:22;198.38;;;187.73;;
14874;SDS011;7529;48.170;17.138;2022-11-20T16:08:34;208.93;;;197.20;;
14874;SDS011;7529;48.170;17.138;2022-11-20T16:12:46;204.98;;;193.38;;
14874;SDS011;7529;48.170;17.138;2022-11-20T16:17:16;206.80;;;195.23;;
14874;SDS011;7529;48.170;17.138;2022-11-20T16:21:47;173.85;;;164.40;;
14874;SDS011;7529;48.170;17.138;2022-11-20T16:26:17;202.38;;;191.50;;
14874;SDS011;7529;48.170;17.138;2022-11-20T16:30:30;242.57;;;228.73;;
14874;SDS011;7529;48.170;17.138;2022-11-20T16:34:42;256.20;;;242.02;;
14874;SDS011;7529;48.170;17.138;2022-11-20T16:38:55;266.05;;;251.18;;
14874;SDS011;7529;48.170;17.138;2022-11-20T16:43:10;228.13;;;215.02;;
14874;SDS011;7529;48.170;17.138;2022-11-20T16:47:25;206.68;;;194.80;;
14874;SDS011;7529;48.170;17.138;2022-11-20T16:51:38;208.52;;;196.73;;
14874;SDS011;7529;48.170;17.138;2022-11-20T16:55:51;157.48;;;147.80;;
14874;SDS011;7529;48.170;17.138;2022-11-20T17:00:03;191.90;;;181.10;;
14874;SDS011;7529;48.170;17.138;2022-11-20T17:04:16;203.73;;;191.85;;
14874;SDS011;7529;48.170;17.138;2022-11-20T17:08:29;251.07;;;236.13;;
14874;SDS011;7529;48.170;17.138;2022-11-20T17:12:41;270.98;;;255.13;;
14874;SDS011;7529;48.170;17.138;2022-11-20T17:16:53;256.55;;;241.60;;
14874;SDS011;7529;48.170;17.138;2022-11-20T17:21:05;258.88;;;242.63;;
14874;SDS011;7529;48.170;17.138;2022-11-20T17:25:17;257.83;;;240.88;;
14874;SDS011;7529;48.170;17.138;2022-11-20T17:29:30;254.02;;;238.05;;
14874;SDS011;7529;48.170;17.138;2022-11-20T17:33:43;251.80;;;236.10;;
14874;SDS011;7529;48.170;17.138;2022-11-20T17:37:55;211.77;;;198.18;;
14874;SDS011;7529;48.170;17.138;2022-11-20T17:42:07;174.10;;;162.38;;
14874;SDS011;7529;48.170;17.138;2022-11-20T17:46:37;185.75;;;172.32;;
14874;SDS011;7529;48.170;17.138;2022-11-20T17:50:50;162.27;;;149.73;;
14874;SDS011;7529;48.170;17.138;2022-11-20T17:55:01;174.98;;;163.20;;
14874;SDS011;7529;48.170;17.138;2022-11-20T17:59:15;183.75;;;170.80;;
14874;SDS011;7529;48.170;17.138;2022-11-20T18:03:28;219.93;;;205.40;;
14874;SDS011;7529;48.170;17.138;2022-11-20T18:07:41;245.18;;;229.60;;
14874;SDS011;7529;48.170;17.138;2022-11-20T18:11:52;258.98;;;242.18;;
14874;SDS011;7529;48.170;17.138;2022-11-20T18:16:11;260.88;;;242.68;;
14874;SDS011;7529;48.170;17.138;2022-11-20T18:20:28;222.20;;;206.75;;
14874;SDS011;7529;48.170;17.138;2022-11-20T18:24:39;215.13;;;200.90;;
14874;SDS011;7529;48.170;17.138;2022-11-20T18:28:54;187.73;;;175.23;;
14874;SDS011;7529;48.170;17.138;2022-11-20T18:33:05;178.00;;;166.13;;
14874;SDS011;7529;48.170;17.138;2022-11-20T18:37:17;184.23;;;172.57;;
14874;SDS011;7529;48.170;17.138;2022-11-20T18:41:30;143.45;;;132.80;;
14874;SDS011;7529;48.170;17.138;2022-11-20T18:46:01;117.38;;;109.32;;
14874;SDS011;7529;48.170;17.138;2022-11-20T18:50:15;126.95;;;118.13;;
14874;SDS011;7529;48.170;17.138;2022-11-20T18:54:29;133.00;;;123.53;;
14874;SDS011;7529;48.170;17.138;2022-11-20T18:58:42;161.70;;;151.52;;
14874;SDS011;7529;48.170;17.138;2022-11-20T19:02:53;194.73;;;182.23;;
14874;SDS011;7529;48.170;17.138;2022-11-20T19:07:05;178.32;;;166.23;;
14874;SDS011;7529;48.170;17.138;2022-11-20T19:11:18;231.50;;;215.85;;
14874;SDS011;7529;48.170;17.138;2022-11-20T19:15:31;229.02;;;214.40;;
14874;SDS011;7529;48.170;17.138;2022-11-20T19:19:45;266.02;;;249.27;;
14874;SDS011;7529;48.170;17.138;2022-11-20T19:24:00;282.23;;;264.95;;
14874;SDS011;7529;48.170;17.138;2022-11-20T19:28:13;246.82;;;231.73;;
14874;SDS011;7529;48.170;17.138;2022-11-20T19:32:27;246.90;;;229.07;;
14874;SDS011;7529;48.170;17.138;2022-11-20T19:36:39;232.07;;;216.15;;
14874;SDS011;7529;48.170;17.138;2022-11-20T19:40:52;199.45;;;185.77;;
14874;SDS011;7529;48.170;17.138;2022-11-20T19:45:05;196.68;;;183.23;;
14874;SDS011;7529;48.170;17.138;2022-11-20T19:49:25;171.85;;;160.40;;
14874;SDS011;7529;48.170;17.138;2022-11-20T19:53:37;149.38;;;139.27;;
14874;SDS011;7529;48.170;17.138;2022-11-20T19:57:50;139.43;;;129.27;;
14874;SDS011;7529;48.170;17.138;2022-11-20T20:02:02;134.52;;;124.15;;
14874;SDS011;7529;48.170;17.138;2022-11-20T20:06:15;132.35;;;122.85;;
14874;SDS011;7529;48.170;17.138;2022-11-20T20:10:38;137.50;;;127.30;;
14874;SDS011;7529;48.170;17.138;2022-11-20T20:14:50;134.07;;;124.40;;
14874;SDS011;7529;48.170;17.138;2022-11-20T20:19:02;128.88;;;118.97;;
14874;SDS011;7529;48.170;17.138;2022-11-20T20:23:16;107.45;;;99.70;;
14874;SDS011;7529;48.170;17.138;2022-11-20T20:27:30;141.38;;;131.48;;
14874;SDS011;7529;48.170;17.138;2022-11-20T20:31:44;137.43;;;128.27;;
14874;SDS011;7529;48.170;17.138;2022-11-20T20:35:58;148.48;;;138.32;;
14874;SDS011;7529;48.170;17.138;2022-11-20T20:40:12;140.30;;;130.70;;
14874;SDS011;7529;48.170;17.138;2022-11-20T20:44:27;133.20;;;123.88;;
14874;SDS011;7529;48.170;17.138;2022-11-20T20:49:01;128.30;;;118.00;;
14874;SDS011;7529;48.170;17.138;2022-11-20T20:53:12;124.32;;;114.60;;
14874;SDS011;7529;48.170;17.138;2022-11-20T20:57:24;109.18;;;100.75;;
14874;SDS011;7529;48.170;17.138;2022-11-20T21:01:40;109.20;;;101.03;;
14874;SDS011;7529;48.170;17.138;2022-11-20T21:05:56;115.85;;;107.05;;
14874;SDS011;7529;48.170;17.138;2022-11-20T21:10:08;145.00;;;134.27;;
14874;SDS011;7529;48.170;17.138;2022-11-20T21:14:20;165.68;;;153.60;;
14874;SDS011;7529;48.170;17.138;2022-11-20T21:18:33;163.00;;;151.48;;
14874;SDS011;7529;48.170;17.138;2022-11-20T21:22:47;168.63;;;156.93;;
14874;SDS011;7529;48.170;17.138;2022-11-20T21:27:00;148.82;;;137.63;;
14874;SDS011;7529;48.170;17.138;2022-11-20T21:31:20;128.45;;;119.43;;
14874;SDS011;7529;48.170;17.138;2022-11-20T21:35:35;117.00;;;108.35;;
14874;SDS011;7529;48.170;17.138;2022-11-20T21:39:49;119.57;;;110.57;;
14874;SDS011;7529;48.170;17.138;2022-11-20T21:44:01;106.55;;;98.85;;
14874;SDS011;7529;48.170;17.138;2022-11-20T21:48:14;91.88;;;84.90;;
14874;SDS011;7529;48.170;17.138;2022-11-20T21:52:25;86.00;;;79.07;;
14874;SDS011;7529;48.170;17.138;2022-11-20T21:56:38;90.18;;;83.15;;
14874;SDS011;7529;48.170;17.138;2022-11-20T22:00:50;90.63;;;83.38;;
14874;SDS011;7529;48.170;17.138;2022-11-20T22:05:03;96.85;;;88.55;;
14874;SDS011;7529;48.170;17.138;2022-11-20T22:09:15;105.38;;;97.18;;
14874;SDS011;7529;48.170;17.138;2022-11-20T22:13:27;104.50;;;96.13;;
14874;SDS011;7529;48.170;17.138;2022-11-20T22:17:58;100.50;;;92.63;;
14874;SDS011;7529;48.170;17.138;2022-11-20T22:22:22;95.65;;;87.80;;
14874;SDS011;7529;48.170;17.138;2022-11-20T22:26:34;108.70;;;100.22;;
14874;SDS011;7529;48.170;17.138;2022-11-20T22:30:46;92.78;;;85.68;;
14874;SDS011;7529;48.170;17.138;2022-11-20T22:34:57;90.82;;;83.65;;
14874;SDS011;7529;48.170;17.138;2022-11-20T22:39:09;100.72;;;92.43;;
14874;SDS011;7529;48.170;17.138;2022-11-20T22:43:20;102.68;;;95.38;;
14874;SDS011;7529;48.170;17.138;2022-11-20T22:47:32;106.25;;;98.32;;
14874;SDS011;7529;48.170;17.138;2022-11-20T22:51:43;109.22;;;101.47;;
14874;SDS011;7529;48.170;17.138;2022-11-20T22:55:56;107.90;;;99.80;;
14874;SDS011;7529;48.170;17.138;2022-11-20T23:00:09;100.57;;;93.00;;
14874;SDS011;7529;48.170;17.138;2022-11-20T23:04:21;110.07;;;101.57;;
14874;SDS011;7529;48.170;17.138;2022-11-20T23:08:33;133.13;;;122.57;;
14874;SDS011;7529;48.170;17.138;2022-11-20T23:12:44;123.50;;;112.95;;
14874;SDS011;7529;48.170;17.138;2022-11-20T23:16:56;139.43;;;127.00;;
14874;SDS011;7529;48.170;17.138;2022-11-20T23:21:15;134.00;;;122.70;;
14874;SDS011;7529;48.170;17.138;2022-11-20T23:25:27;135.23;;;124.55;;
14874;SDS011;7529;48.170;17.138;2022-11-20T23:29:39;163.77;;;151.27;;
14874;SDS011;7529;48.170;17.138;2022-11-20T23:33:50;137.57;;;126.68;;
14874;SDS011;7529;48.170;17.138;2022-11-20T23:38:02;144.57;;;134.10;;
14874;SDS011;7529;48.170;17.138;2022-11-20T23:42:13;136.55;;;125.35;;
14874;SDS011;7529;48.170;17.138;2022-11-20T23:46:25;131.75;;;122.47;;
14874;SDS011;7529;48.170;17.138;2022-11-20T23:50:37;165.10;;;153.90;;
14874;SDS011;7529;48.170;17.138;2022-11-20T23:54:48;192.80;;;180.48;;
14874;SDS011;7529;48.170;17.138;2022-11-20T23:59:00;195.35;;;181.95;;
